Time;durP1;ratioP1;P1;durP2;ratioP2;P2;SDS_P1;SDS_P2;PMS_P1;PMS_P2;Temp;Humidity;BMP_temperature;BMP_pressure;BME280_temperature;BME280_humidity;BME280_pressure;Samples;Min_cycle;Max_cycle;Signal;HPM_P1;HPM_P2
2022/10/15 00:01:16;;;;;;;3.73;1.20;;;15.50;99.90;;;15.87;nan;99844.09;5011146;28;20621;-68
2022/10/15 00:03:44;;;;;;;1.43;1.40;;;15.50;99.90;;;15.78;nan;99842.44;5011853;28;20616;-69
2022/10/15 00:06:16;;;;;;;1.20;1.10;;;15.50;99.90;;;15.85;nan;99846.06;5012812;28;21186;-66
2022/10/15 00:08:44;;;;;;;1.20;1.10;;;15.50;99.90;;;15.86;nan;99829.31;4993959;28;21268;-68
2022/10/15 00:11:24;;;;;;;1.00;1.00;;;15.50;99.90;;;16.02;nan;99824.03;4991798;28;20638;-66
2022/10/15 00:13:54;;;;;;;0.90;0.90;;;15.60;99.90;;;15.99;nan;99827.81;5007442;28;20675;-68
2022/10/15 00:16:25;;;;;;;0.70;0.70;;;15.60;99.90;;;15.86;nan;99830.13;4994504;28;21205;-68
2022/10/15 00:18:55;;;;;;;0.90;0.90;;;15.60;99.90;;;15.93;nan;99830.31;5010573;28;20646;-67
2022/10/15 00:21:22;;;;;;;0.60;0.60;;;15.60;99.90;;;16.02;nan;99837.19;5012534;28;20640;-65
2022/10/15 00:23:49;;;;;;;0.87;0.87;;;15.60;99.90;;;15.99;nan;99837.53;5011881;28;20634;-66
2022/10/15 00:26:21;;;;;;;0.83;0.83;;;15.60;99.90;;;16.03;nan;99837.06;5011012;28;20684;-65
2022/10/15 00:28:53;;;;;;;0.80;0.80;;;15.60;99.90;;;15.98;nan;99833.25;4992992;28;20668;-65
2022/10/15 00:31:23;;;;;;;0.67;0.67;;;15.60;99.90;;;15.94;nan;99832.75;5010719;28;21003;-64
2022/10/15 00:33:52;;;;;;;0.70;0.70;;;15.60;99.90;;;15.91;nan;99838.34;5009463;28;20674;-65
2022/10/15 00:36:23;;;;;;;0.70;0.70;;;15.60;99.90;;;15.89;nan;99835.03;4992994;28;20622;-65
2022/10/15 00:38:51;;;;;;;0.70;0.70;;;15.60;99.90;;;15.89;nan;99836.84;4992664;28;20658;-65
2022/10/15 00:41:25;;;;;;;0.50;0.50;;;15.60;99.90;;;15.91;nan;99837.50;4993645;28;20630;-67
2022/10/15 00:43:55;;;;;;;2.40;0.90;;;15.60;99.90;;;15.94;nan;99837.19;5011417;28;20616;-67
2022/10/15 00:46:37;;;;;;;0.60;0.60;;;15.60;99.90;;;15.94;nan;99834.56;5012029;28;20632;-68
2022/10/15 00:49:31;;;;;;;0.80;0.80;;;15.60;99.90;;;15.94;nan;99831.94;5007692;28;20739;-70
2022/10/15 00:52:06;;;;;;;0.80;0.80;;;15.60;99.90;;;15.89;nan;99831.59;5010164;28;20651;-62
2022/10/15 00:54:39;;;;;;;0.80;0.80;;;15.60;99.90;;;15.90;nan;99831.44;5011928;28;21038;-64
2022/10/15 00:57:07;;;;;;;0.60;0.60;;;15.60;99.90;;;15.98;nan;99822.72;4992636;28;21189;-64
2022/10/15 00:59:38;;;;;;;0.70;0.70;;;15.60;99.90;;;15.90;nan;99814.84;5010536;28;20679;-67
2022/10/15 01:02:06;;;;;;;0.80;0.80;;;15.60;99.90;;;15.79;nan;99829.13;4993755;28;20979;-67
2022/10/15 01:04:34;;;;;;;1.63;0.70;;;15.50;99.90;;;15.83;nan;99814.66;5005489;28;20640;-64
2022/10/15 01:07:01;;;;;;;0.70;0.70;;;15.50;99.90;;;15.90;nan;99813.03;5006520;28;20636;-65
2022/10/15 01:09:28;;;;;;;0.90;0.80;;;15.50;99.90;;;15.98;nan;99813.03;5009436;28;20662;-66
2022/10/15 01:11:56;;;;;;;0.70;0.70;;;15.60;99.90;;;16.01;nan;99806.63;4992098;28;20630;-66
2022/10/15 01:14:38;;;;;;;0.63;0.63;;;15.60;99.90;;;15.97;nan;99807.94;5010660;28;21226;-66
2022/10/15 01:17:30;;;;;;;0.90;0.90;;;15.60;99.90;;;16.06;nan;99814.81;4992015;28;20629;-65
2022/10/15 01:20:49;;;;;;;1.23;0.70;;;15.60;99.90;;;15.94;nan;99810.88;5008257;28;20680;-65
2022/10/15 01:24:09;;;;;;;0.70;0.70;;;15.60;99.90;;;15.98;nan;99812.19;4991102;28;20637;-65
2022/10/15 01:27:02;;;;;;;0.60;0.60;;;15.60;99.90;;;16.05;nan;99816.66;4976114;28;20997;-63
2022/10/15 01:30:12;;;;;;;0.70;0.63;;;15.60;99.90;;;16.07;nan;99816.47;4979977;28;20657;-66
2022/10/15 01:33:01;;;;;;;0.50;0.50;;;15.70;99.90;;;16.14;nan;99815.66;5010132;28;20648;-65
2022/10/15 01:35:37;;;;;;;1.80;0.80;;;15.70;99.90;;;16.02;nan;99811.72;5010807;28;21187;-68
2022/10/15 01:38:29;;;;;;;0.83;0.83;;;15.70;99.90;;;16.08;nan;99810.22;4992145;28;20642;-67
2022/10/15 01:41:18;;;;;;;0.70;0.70;;;15.70;99.90;;;16.18;nan;99813.53;4992671;28;21220;-64
2022/10/15 01:43:56;;;;;;;1.03;0.93;;;15.70;99.90;;;16.25;nan;99806.59;4992723;28;20637;-67
2022/10/15 01:46:44;;;;;;;1.00;0.90;;;15.70;99.90;;;16.12;nan;99798.41;4991125;28;20977;-66
2022/10/15 01:49:15;;;;;;;0.73;0.73;;;15.80;99.90;;;16.28;nan;99807.09;4989374;28;20708;-65
2022/10/15 01:51:43;;;;;;;0.70;0.70;;;15.80;99.90;;;16.22;nan;99809.56;4993473;28;20598;-68
2022/10/15 01:54:16;;;;;;;0.50;0.50;;;15.80;99.90;;;16.18;nan;99803.00;4993781;28;20656;-64
2022/10/15 01:56:48;;;;;;;0.70;0.70;;;15.80;99.90;;;16.24;nan;99799.69;4993506;28;20630;-66
2022/10/15 01:59:26;;;;;;;0.60;0.60;;;15.80;99.90;;;16.22;nan;99799.03;5009991;28;21009;-66
2022/10/15 02:01:53;;;;;;;0.60;0.60;;;15.80;99.90;;;16.24;nan;99810.22;4992816;28;20621;-65
2022/10/15 02:04:31;;;;;;;0.70;0.70;;;15.80;99.90;;;16.27;nan;99807.25;5000110;28;20642;-66
2022/10/15 02:07:51;;;;;;;0.60;0.60;;;15.80;99.90;;;16.21;nan;99798.22;5008508;28;20629;-66
2022/10/15 02:10:59;;;;;;;0.77;0.77;;;15.80;99.90;;;16.04;nan;99796.56;4972831;28;20642;-66
2022/10/15 02:13:48;;;;;;;0.70;0.70;;;15.80;99.90;;;16.06;nan;99797.22;4967030;28;21027;-64
2022/10/15 02:16:43;;;;;;;0.70;0.70;;;15.70;99.90;;;16.12;nan;99795.78;4991689;28;20715;-65
2022/10/15 02:19:31;;;;;;;0.60;0.60;;;15.70;99.90;;;16.09;nan;99793.44;4991417;28;21138;-67
2022/10/15 02:22:07;;;;;;;0.60;0.60;;;15.80;99.90;;;16.12;nan;99793.13;5009647;28;20625;-68
2022/10/15 02:24:48;;;;;;;0.90;0.57;;;15.70;99.90;;;16.17;nan;99794.28;5011343;28;21087;-66
2022/10/15 02:27:20;;;;;;;0.70;0.70;;;15.70;99.90;;;16.30;nan;99806.91;5013501;28;20645;-66
2022/10/15 02:29:50;;;;;;;0.60;0.60;;;15.80;99.90;;;16.36;nan;99802.78;4995251;28;20653;-66
2022/10/15 02:32:23;;;;;;;0.57;0.57;;;15.90;99.90;;;16.34;nan;99808.22;4995898;28;20632;-65
2022/10/15 02:34:51;;;;;;;3.83;0.70;;;15.90;99.90;;;16.29;nan;99810.56;4994284;28;20666;-66
2022/10/15 02:37:26;;;;;;;0.70;0.70;;;15.90;99.90;;;16.35;nan;99807.25;4994917;28;20736;-67
2022/10/15 02:39:53;;;;;;;1.23;0.80;;;15.90;99.90;;;16.39;nan;99810.38;5007717;28;20671;-65
2022/10/15 02:42:20;;;;;;;0.57;0.57;;;15.90;99.90;;;16.46;nan;99801.63;5011433;28;21197;-65
2022/10/15 02:44:48;;;;;;;0.40;0.40;;;15.90;99.90;;;16.36;nan;99800.16;5012345;28;20632;-65
2022/10/15 02:47:15;;;;;;;0.50;0.50;;;15.90;99.90;;;16.27;nan;99791.44;5013609;28;21044;-67
2022/10/15 02:49:42;;;;;;;0.60;0.60;;;15.90;99.90;;;16.40;nan;99796.22;5013210;28;20657;-68
2022/10/15 02:52:09;;;;;;;0.50;0.50;;;15.90;99.90;;;16.37;nan;99799.19;5013100;28;20664;-64
2022/10/15 02:54:36;;;;;;;1.57;0.60;;;15.90;99.90;;;16.42;nan;99804.78;4995790;28;20696;-67
2022/10/15 02:57:03;;;;;;;0.60;0.60;;;15.90;99.90;;;16.47;nan;99807.72;5012207;28;20630;-66
2022/10/15 02:59:30;;;;;;;0.40;0.40;;;15.90;99.90;;;16.46;nan;99808.72;5012728;28;20660;-66
2022/10/15 03:01:57;;;;;;;0.60;0.60;;;16.00;99.90;;;16.48;nan;99815.47;5012150;28;20632;-67
2022/10/15 03:04:24;;;;;;;0.60;0.60;;;16.00;99.90;;;16.53;nan;99813.16;5012220;28;20691;-65
2022/10/15 03:06:51;;;;;;;0.40;0.40;;;16.00;99.90;;;16.56;nan;99818.09;5013139;28;20626;-66
2022/10/15 03:09:17;;;;;;;0.40;0.40;;;16.00;99.90;;;16.65;nan;99809.16;5012062;28;20669;-65
2022/10/15 03:11:44;;;;;;;1.70;0.50;;;16.10;99.90;;;16.53;nan;99799.16;5012230;28;20643;-69
2022/10/15 03:14:11;;;;;;;0.50;0.50;;;16.10;99.90;;;16.43;nan;99806.41;5006893;28;20661;-65
2022/10/15 03:16:38;;;;;;;0.40;0.40;;;16.00;99.90;;;16.49;nan;99814.47;5018616;28;20633;-66
2022/10/15 03:19:05;;;;;;;0.50;0.50;;;16.00;99.90;;;16.55;nan;99819.09;5011613;28;20815;-66
2022/10/15 03:21:32;;;;;;;0.50;0.50;;;16.00;99.90;;;16.63;nan;99816.44;5012900;28;20699;-65
2022/10/15 03:23:59;;;;;;;0.40;0.40;;;16.10;99.90;;;16.57;nan;99808.41;5012053;28;20638;-66
2022/10/15 03:26:26;;;;;;;0.50;0.50;;;16.10;99.90;;;16.50;nan;99807.41;5012151;28;20987;-65
2022/10/15 03:28:53;;;;;;;0.50;0.50;;;16.10;99.90;;;16.37;nan;99807.09;5011752;28;20664;-68
2022/10/15 03:31:20;;;;;;;0.50;0.50;;;16.00;99.90;;;16.55;nan;99819.09;4995911;28;20614;-65
2022/10/15 03:33:47;;;;;;;0.50;0.50;;;16.00;99.90;;;16.63;nan;99819.06;4995017;28;20620;-64
2022/10/15 03:36:14;;;;;;;0.50;0.50;;;16.10;99.90;;;16.57;nan;99817.09;5012854;28;21177;-65
2022/10/15 03:38:41;;;;;;;0.50;0.50;;;16.00;99.90;;;16.54;nan;99817.44;5011996;28;20658;-64
2022/10/15 03:41:08;;;;;;;1.23;0.63;;;16.10;99.90;;;16.31;nan;99819.91;5011831;28;20644;-64
2022/10/15 03:43:34;;;;;;;0.40;0.40;;;16.00;99.90;;;16.34;nan;99821.38;5008987;28;20634;-64
2022/10/15 03:46:05;;;;;;;0.70;0.53;;;16.00;99.90;;;16.38;nan;99827.13;5010770;28;20637;-65
2022/10/15 03:48:31;;;;;;;0.40;0.40;;;16.00;99.90;;;16.40;nan;99827.81;5010925;28;21192;-66
2022/10/15 03:50:58;;;;;;;0.50;0.50;;;16.10;99.90;;;16.36;nan;99837.84;5011324;28;20632;-65
2022/10/15 03:53:25;;;;;;;0.50;0.50;;;16.10;99.90;;;16.38;nan;99833.22;5011714;28;21064;-67
2022/10/15 03:55:52;;;;;;;0.53;0.53;;;16.10;99.90;;;16.40;nan;99833.88;4994724;28;20653;-66
2022/10/15 03:58:19;;;;;;;0.50;0.50;;;16.10;99.90;;;16.29;nan;99829.78;5012694;28;20618;-65
2022/10/15 04:00:46;;;;;;;0.50;0.50;;;16.10;99.90;;;16.35;nan;99835.38;5006618;28;21240;-65
2022/10/15 04:03:13;;;;;;;0.40;0.40;;;16.10;99.90;;;16.30;nan;99833.25;4998154;28;20633;-65
2022/10/15 04:05:40;;;;;;;0.60;0.60;;;16.10;99.90;;;16.32;nan;99836.53;5011257;28;20628;-66
2022/10/15 04:08:07;;;;;;;0.50;0.50;;;16.00;99.90;;;16.37;nan;99843.94;5011180;28;20649;-66
2022/10/15 04:10:34;;;;;;;0.60;0.60;;;16.10;99.90;;;16.35;nan;99841.47;5011943;28;20690;-65
2022/10/15 04:13:01;;;;;;;2.77;0.60;;;16.00;99.90;;;16.24;nan;99844.44;5011753;28;21023;-65
2022/10/15 04:15:28;;;;;;;1.30;0.50;;;16.00;99.90;;;16.39;nan;99849.84;5011078;28;21065;-66
2022/10/15 04:17:55;;;;;;;0.50;0.50;;;16.00;99.90;;;16.33;nan;99846.88;5011406;28;20621;-66
2022/10/15 04:20:22;;;;;;;0.60;0.60;;;16.00;99.90;;;16.33;nan;99859.25;5010833;28;20661;-67
2022/10/15 04:22:49;;;;;;;0.90;0.60;;;16.00;99.90;;;16.29;nan;99865.84;4994423;28;20661;-65
2022/10/15 04:25:16;;;;;;;0.70;0.70;;;16.00;99.90;;;16.35;nan;99864.34;5012084;28;20632;-67
2022/10/15 04:27:43;;;;;;;1.80;0.40;;;16.00;99.90;;;16.46;nan;99858.75;5011972;28;20652;-65
2022/10/15 04:30:11;;;;;;;0.50;0.50;;;16.10;99.90;;;16.36;nan;99863.34;5010768;28;20665;-66
2022/10/15 04:32:38;;;;;;;0.50;0.50;;;16.10;99.90;;;16.42;nan;99873.22;5010263;28;20637;-65
2022/10/15 04:35:06;;;;;;;0.50;0.50;;;16.10;99.90;;;16.32;nan;99862.84;5010188;28;20675;-66
2022/10/15 04:37:33;;;;;;;0.47;0.47;;;16.10;99.90;;;16.29;nan;99874.53;5011095;28;20620;-66
2022/10/15 04:40:00;;;;;;;0.57;0.57;;;16.00;99.90;;;16.40;nan;99868.09;5011554;28;20936;-64
2022/10/15 04:42:30;;;;;;;0.53;0.50;;;16.10;99.90;;;16.30;nan;99872.72;5010666;28;20633;-65
2022/10/15 04:44:57;;;;;;;0.50;0.50;;;16.00;99.90;;;16.12;nan;99875.50;4993730;28;20674;-65
2022/10/15 04:47:24;;;;;;;0.40;0.40;;;16.00;99.90;;;16.10;nan;99876.66;5011014;28;21193;-66
2022/10/15 04:49:51;;;;;;;0.43;0.43;;;15.90;99.90;;;16.12;nan;99872.09;4989030;28;20662;-65
2022/10/15 04:52:18;;;;;;;0.53;0.53;;;15.90;99.90;;;16.06;nan;99880.59;5009829;28;20634;-65
2022/10/15 04:54:45;;;;;;;0.43;0.43;;;15.90;99.90;;;16.14;nan;99870.09;5011096;28;20727;-65
2022/10/15 04:57:12;;;;;;;0.50;0.50;;;15.90;99.90;;;15.98;nan;99872.72;5011055;28;20614;-65
2022/10/15 04:59:40;;;;;;;0.60;0.60;;;15.90;99.90;;;16.05;nan;99882.44;5011050;28;20637;-65
2022/10/15 05:02:07;;;;;;;0.70;0.50;;;15.90;99.90;;;16.25;nan;99885.53;5011379;28;20697;-66
2022/10/15 05:04:34;;;;;;;0.40;0.40;;;15.90;99.90;;;16.31;nan;99885.72;5010486;28;20983;-66
2022/10/15 05:07:01;;;;;;;0.50;0.50;;;15.90;99.90;;;16.28;nan;99887.88;5010626;28;20616;-64
2022/10/15 05:09:28;;;;;;;0.40;0.40;;;15.90;99.90;;;16.28;nan;99888.69;5010208;28;20665;-65
2022/10/15 05:11:55;;;;;;;0.50;0.50;;;15.90;99.90;;;16.22;nan;99899.06;5011337;28;20636;-66
2022/10/15 05:14:22;;;;;;;0.87;0.70;;;15.90;99.90;;;16.25;nan;99891.66;5008480;28;20692;-64
2022/10/15 05:16:49;;;;;;;0.60;0.60;;;15.90;99.90;;;16.22;nan;99897.25;5010177;28;20622;-66
2022/10/15 05:19:16;;;;;;;0.87;0.70;;;15.90;99.90;;;16.29;nan;99894.78;5007344;28;20658;-65
2022/10/15 05:21:44;;;;;;;1.00;0.63;;;15.90;99.90;;;16.16;nan;99895.25;5003758;28;20631;-66
2022/10/15 05:24:11;;;;;;;0.63;0.60;;;15.80;99.90;;;16.35;nan;99896.75;4990389;28;20644;-65
2022/10/15 05:26:38;;;;;;;0.50;0.50;;;15.90;99.90;;;16.21;nan;99908.75;4996129;28;20640;-66
2022/10/15 05:29:04;;;;;;;1.07;0.70;;;15.80;99.90;;;16.17;nan;99911.88;5011490;28;20650;-64
2022/10/15 05:31:33;;;;;;;0.60;0.60;;;15.80;99.90;;;16.33;nan;99911.06;5011666;28;20622;-65
2022/10/15 05:34:07;;;;;;;0.80;0.80;;;15.90;99.90;;;16.36;nan;99910.72;4993613;28;20687;-63
2022/10/15 05:36:35;;;;;;;0.60;0.60;;;15.90;99.90;;;16.39;nan;99911.25;4993954;28;20660;-67
2022/10/15 05:39:06;;;;;;;0.77;0.77;;;15.90;99.90;;;16.33;nan;99916.34;5009298;28;20742;-65
2022/10/15 05:41:33;;;;;;;0.73;0.73;;;15.90;99.90;;;16.24;nan;99923.41;5010303;28;20642;-66
2022/10/15 05:44:00;;;;;;;1.60;1.00;;;15.90;99.90;;;16.35;nan;99935.41;5009125;28;20629;-66
2022/10/15 05:46:27;;;;;;;0.70;0.70;;;15.90;99.90;;;16.43;nan;99932.78;5006659;28;21014;-66
2022/10/15 05:48:56;;;;;;;0.93;0.93;;;15.90;99.90;;;16.46;nan;99940.38;5010344;28;20680;-67
2022/10/15 05:51:26;;;;;;;1.00;0.90;;;16.00;99.90;;;16.43;nan;99941.50;5010434;28;21044;-66
2022/10/15 05:53:55;;;;;;;0.90;0.90;;;16.00;99.90;;;16.53;nan;99947.47;4992212;28;20626;-65
2022/10/15 05:56:22;;;;;;;0.90;0.90;;;16.00;99.90;;;16.39;nan;99953.38;5011870;28;20661;-65
2022/10/15 05:58:50;;;;;;;0.80;0.80;;;15.90;99.90;;;16.53;nan;99955.38;5009748;28;20662;-65
2022/10/15 06:01:18;;;;;;;0.80;0.80;;;16.00;99.90;;;16.60;nan;99961.63;5012068;28;20687;-65
2022/10/15 06:03:45;;;;;;;0.80;0.80;;;16.10;99.90;;;16.57;nan;99961.94;5013585;28;20618;-65
2022/10/15 06:06:19;;;;;;;1.67;1.00;;;16.10;99.90;;;16.53;nan;99963.25;5014162;28;20613;-66
2022/10/15 06:08:50;;;;;;;0.83;0.83;;;16.10;99.90;;;16.50;nan;99968.88;4996168;28;20718;-65
2022/10/15 06:11:20;;;;;;;0.80;0.80;;;16.00;99.90;;;16.54;nan;99975.47;4997444;28;20728;-65
2022/10/15 06:13:52;;;;;;;0.90;0.90;;;16.10;99.90;;;16.64;nan;99970.00;4996570;28;20633;-64
2022/10/15 06:16:19;;;;;;;1.90;1.10;;;16.10;99.90;;;16.59;nan;99970.50;5008776;28;20681;-66
2022/10/15 06:18:52;;;;;;;1.13;0.93;;;16.10;99.90;;;16.64;nan;99967.38;5011529;28;20716;-64
2022/10/15 06:21:20;;;;;;;1.43;0.70;;;16.20;99.90;;;16.71;nan;99976.28;4995936;28;21366;-65
2022/10/15 06:23:50;;;;;;;1.33;0.80;;;16.20;99.90;;;16.64;nan;99976.09;5011400;28;20637;-66
2022/10/15 06:26:17;;;;;;;0.70;0.70;;;16.20;99.90;;;16.78;nan;99974.63;5013115;28;20617;-65
2022/10/15 06:28:47;;;;;;;0.90;0.67;;;16.30;99.90;;;16.78;nan;99975.44;5013494;28;20646;-65
2022/10/15 06:31:14;;;;;;;0.90;0.90;;;16.30;99.90;;;16.78;nan;99979.91;5013619;28;20648;-66
2022/10/15 06:33:41;;;;;;;0.80;0.80;;;16.30;99.90;;;16.78;nan;99988.59;5011463;28;20625;-67
2022/10/15 06:36:12;;;;;;;0.97;0.87;;;16.30;99.90;;;16.75;nan;100001.31;4995018;28;20666;-65
2022/10/15 06:38:42;;;;;;;1.10;0.93;;;16.20;99.90;;;16.74;nan;100000.47;5012120;28;20638;-66
2022/10/15 06:41:10;;;;;;;0.90;0.90;;;16.20;99.90;;;16.79;nan;100000.81;5012839;28;20632;-65
2022/10/15 06:43:37;;;;;;;0.90;0.90;;;16.30;99.90;;;16.81;nan;100006.72;5013013;28;20648;-64
2022/10/15 06:46:05;;;;;;;0.87;0.87;;;16.30;99.90;;;16.84;nan;100002.94;5004907;28;20642;-65
2022/10/15 06:48:33;;;;;;;1.57;1.30;;;16.30;99.90;;;16.79;nan;100008.72;4986160;28;20631;-65
2022/10/15 06:51:02;;;;;;;1.40;1.30;;;16.30;99.90;;;16.65;nan;100011.97;5010952;28;20637;-65
2022/10/15 06:53:30;;;;;;;2.00;1.13;;;16.30;99.90;;;16.74;nan;100021.53;4995020;28;20618;-65
2022/10/15 06:56:02;;;;;;;1.13;1.03;;;16.30;99.90;;;16.74;nan;100021.53;5011992;28;20653;-65
2022/10/15 06:58:29;;;;;;;1.23;1.13;;;16.20;99.90;;;16.77;nan;100030.94;4994041;28;21060;-64
2022/10/15 07:01:04;;;;;;;1.10;1.10;;;16.30;99.90;;;16.83;nan;100028.47;5012287;28;20637;-66
2022/10/15 07:03:32;;;;;;;1.37;1.37;;;16.30;99.90;;;16.83;nan;100020.56;5006855;28;21062;-66
2022/10/15 07:06:04;;;;;;;1.33;1.20;;;16.30;99.90;;;16.63;nan;100018.44;5003725;28;21212;-65
2022/10/15 07:08:34;;;;;;;0.90;0.90;;;16.30;99.90;;;16.42;nan;100025.94;5011126;28;20629;-65
2022/10/15 07:11:03;;;;;;;1.40;1.30;;;16.20;99.90;;;16.50;nan;100042.59;5013409;28;20637;-63
2022/10/15 07:13:31;;;;;;;1.17;1.17;;;16.20;99.90;;;16.71;nan;100037.69;5013000;28;20626;-65
2022/10/15 07:16:02;;;;;;;1.30;1.30;;;16.20;99.90;;;16.86;nan;100035.22;5013753;28;21086;-66
2022/10/15 07:18:29;;;;;;;1.30;1.30;;;16.30;99.90;;;16.89;nan;100040.16;5011841;28;21251;-66
2022/10/15 07:20:56;;;;;;;1.40;1.30;;;16.30;99.90;;;16.81;nan;100046.25;5006701;28;20637;-66
2022/10/15 07:23:23;;;;;;;1.43;1.30;;;16.30;99.90;;;16.86;nan;100045.75;5002127;28;20619;-65
2022/10/15 07:25:56;;;;;;;1.40;1.30;;;16.30;99.90;;;16.96;nan;100047.25;5012238;28;20645;-65
2022/10/15 07:28:24;;;;;;;1.10;1.10;;;16.40;99.90;;;16.68;nan;100037.19;4995856;28;20609;-66
2022/10/15 07:30:51;;;;;;;1.20;1.20;;;16.40;99.90;;;16.50;nan;100037.34;5012750;28;21224;-65
2022/10/15 07:33:18;;;;;;;1.23;1.23;;;16.20;99.90;;;16.71;nan;100042.97;4996099;28;20633;-64
2022/10/15 07:35:45;;;;;;;1.27;1.20;;;16.30;99.90;;;16.78;nan;100043.94;5000408;28;20670;-65
2022/10/15 07:38:12;;;;;;;2.30;1.40;;;16.30;99.90;;;16.78;nan;100041.31;5009805;28;20622;-66
2022/10/15 07:40:39;;;;;;;1.13;1.03;;;16.30;99.90;;;16.84;nan;100042.47;4992751;28;20712;-66
2022/10/15 07:43:06;;;;;;;2.40;1.27;;;16.40;99.90;;;16.80;nan;100041.97;5011538;28;20670;-65
2022/10/15 07:45:34;;;;;;;1.30;1.30;;;16.40;99.90;;;16.94;nan;100049.22;5008030;28;20636;-65
2022/10/15 07:48:01;;;;;;;1.60;1.50;;;16.40;99.90;;;16.87;nan;100045.59;5001825;28;20629;-64
2022/10/15 07:50:28;;;;;;;1.23;1.23;;;16.40;99.90;;;17.09;nan;100054.66;5006621;28;20661;-64
2022/10/15 07:52:58;;;;;;;1.63;1.53;;;16.50;99.90;;;17.12;nan;100056.97;5007552;28;21015;-65
2022/10/15 07:55:25;;;;;;;1.67;1.57;;;16.60;99.90;;;16.88;nan;100060.44;5012367;28;20680;-66
2022/10/15 07:57:57;;;;;;;1.97;1.40;;;16.50;99.90;;;16.96;nan;100059.59;5010956;28;20624;-65
2022/10/15 08:00:24;;;;;;;1.50;1.40;;;16.60;99.90;;;16.83;nan;100052.19;5004036;28;20664;-65
2022/10/15 08:02:51;;;;;;;1.30;1.30;;;16.50;99.90;;;16.75;nan;100051.34;5011507;28;20970;-65
2022/10/15 08:05:18;;;;;;;1.60;1.50;;;16.40;99.90;;;16.87;nan;100061.41;5003052;28;20634;-64
2022/10/15 08:07:45;;;;;;;3.50;1.63;;;16.40;99.90;;;16.99;nan;100069.81;5007640;28;20626;-64
2022/10/15 08:10:15;;;;;;;1.60;1.50;;;16.40;99.90;;;17.18;nan;100066.84;4993275;28;20658;-65
2022/10/15 08:12:42;;;;;;;1.50;1.40;;;16.60;99.90;;;17.14;nan;100068.16;5012181;28;20625;-66
2022/10/15 08:15:10;;;;;;;2.40;1.50;;;16.60;99.90;;;17.36;nan;100061.38;5002087;28;20618;-63
2022/10/15 08:17:41;;;;;;;1.17;1.17;;;16.70;99.90;;;17.85;nan;100060.28;4991669;28;20611;-66
2022/10/15 08:20:09;;;;;;;1.33;1.23;;;16.90;99.90;;;17.98;nan;100065.84;5007504;28;21046;-65
2022/10/15 08:22:37;;;;;;;1.20;1.20;;;17.20;99.90;;;18.20;nan;100075.66;5009790;28;20637;-65
2022/10/15 08:25:04;;;;;;;1.63;1.53;;;17.30;99.90;;;18.25;nan;100078.59;5011180;28;20622;-64
2022/10/15 08:27:31;;;;;;;2.50;1.60;;;17.50;99.90;;;18.31;nan;100077.09;5011147;28;20626;-68
2022/10/15 08:29:58;;;;;;;2.93;1.27;;;17.60;99.90;;;18.53;nan;100082.44;5010898;28;20723;-65
2022/10/15 08:32:25;;;;;;;1.10;1.10;;;17.70;99.90;;;19.30;nan;100083.19;5011149;28;20610;-66
2022/10/15 08:34:52;;;;;;;1.77;1.20;;;18.00;99.90;;;19.53;nan;100085.81;5012681;28;21186;-66
2022/10/15 08:37:20;;;;;;;1.10;1.00;;;18.40;99.90;;;19.55;nan;100089.91;4994023;28;20665;-65
2022/10/15 08:39:47;;;;;;;1.10;1.00;;;18.50;99.90;;;19.45;nan;100089.34;5006101;28;20704;-64
2022/10/15 08:42:31;;;;;;;1.00;1.00;;;18.60;99.90;;;19.53;nan;100088.47;5007458;28;20634;-62
2022/10/15 08:45:03;;;;;;;0.90;0.90;;;18.60;99.90;;;20.18;nan;100085.88;4995212;28;20622;-65
2022/10/15 08:47:36;;;;;;;1.03;0.90;;;18.90;99.90;;;20.35;nan;100087.34;5011537;28;20637;-65
2022/10/15 08:50:19;;;;;;;1.27;1.00;;;19.20;99.90;;;20.49;nan;100078.53;5011813;28;20658;-65
2022/10/15 08:52:48;;;;;;;0.90;0.90;;;19.50;99.90;;;20.60;nan;100075.41;4993625;28;20635;-65
2022/10/15 08:55:18;;;;;;;1.30;1.20;;;19.70;99.90;;;20.85;nan;100079.31;4994714;28;20617;-64
2022/10/15 08:58:03;;;;;;;1.53;1.43;;;19.80;99.90;;;21.31;nan;100079.78;4975059;28;20622;-64
2022/10/15 09:00:40;;;;;;;1.67;0.90;;;20.10;99.90;;;25.01;nan;100080.41;4980984;28;20646;-64
2022/10/15 09:03:32;;;;;;;0.90;0.90;;;21.70;99.90;;;25.36;nan;100092.25;5005752;28;20645;-65
2022/10/15 09:06:38;;;;;;;1.07;0.97;;;22.80;99.90;;;25.01;nan;100085.75;4997051;28;20638;-64
2022/10/15 09:09:45;;;;;;;0.90;0.90;;;23.60;99.90;;;23.59;nan;100082.44;4990188;28;21089;-65
2022/10/15 09:12:36;;;;;;;0.80;0.80;;;23.10;99.90;;;21.23;nan;100080.72;5005463;28;20721;-65
2022/10/15 09:15:09;;;;;;;0.97;0.90;;;21.90;99.90;;;20.64;nan;100080.16;5006151;28;20642;-65
2022/10/15 09:17:36;;;;;;;1.87;1.23;;;20.90;99.90;;;20.57;nan;100070.50;4992736;28;20618;-65
2022/10/15 09:20:14;;;;;;;0.87;0.87;;;20.30;99.90;;;20.41;nan;100076.00;5007084;28;21260;-65
2022/10/15 09:22:41;;;;;;;1.13;1.13;;;20.00;99.90;;;19.66;nan;100068.28;5009384;28;20970;-65
2022/10/15 09:25:19;;;;;;;1.13;1.00;;;19.50;99.90;;;19.58;nan;100068.38;5011677;28;20660;-65
2022/10/15 09:27:48;;;;;;;1.20;1.20;;;19.30;99.90;;;19.20;nan;100072.03;5009728;28;20644;-64
2022/10/15 09:30:27;;;;;;;1.00;0.90;;;19.00;99.90;;;19.10;nan;100074.91;4994132;28;21201;-65
2022/10/15 09:33:21;;;;;;;2.30;1.13;;;18.80;99.90;;;19.40;nan;100080.31;5009610;28;20637;-65
2022/10/15 09:36:03;;;;;;;1.10;1.00;;;18.80;99.90;;;18.85;nan;100081.41;5010702;28;21280;-64
2022/10/15 09:38:57;;;;;;;1.93;1.03;;;18.60;99.90;;;18.80;nan;100083.75;5013585;28;20985;-64
2022/10/15 09:41:46;;;;;;;0.70;0.70;;;18.40;99.90;;;18.64;nan;100072.47;4999391;28;20650;-63
2022/10/15 09:44:14;;;;;;;0.97;0.97;;;18.30;99.90;;;18.52;nan;100079.97;5009101;28;20636;-68
2022/10/15 09:46:49;;;;;;;0.87;0.87;;;18.20;99.90;;;18.66;nan;100081.84;5013666;28;20614;-65
2022/10/15 09:49:27;;;;;;;1.20;1.20;;;18.20;99.90;;;18.66;nan;100070.47;4996396;28;20671;-67
2022/10/15 09:52:25;;;;;;;0.90;0.90;;;18.10;99.90;;;18.69;nan;100083.34;5006384;28;21005;-65
2022/10/15 09:55:11;;;;;;;1.20;1.10;;;18.10;99.90;;;18.83;nan;100093.13;4997411;28;20672;-64
2022/10/15 09:57:39;;;;;;;0.87;0.87;;;18.20;99.90;;;18.47;nan;100093.72;4981179;28;20731;-65
2022/10/15 10:00:10;;;;;;;1.40;1.27;;;18.10;99.90;;;18.27;nan;100095.09;4995408;28;21030;-63
2022/10/15 10:02:37;;;;;;;0.80;0.80;;;18.00;99.90;;;18.37;nan;100090.44;5013472;28;20626;-69
2022/10/15 10:05:31;;;;;;;1.00;1.00;;;18.00;99.90;;;18.34;nan;100093.41;5012931;28;20625;-65
2022/10/15 10:08:34;;;;;;;0.57;0.57;;;18.00;99.90;;;18.74;nan;100099.50;5009529;28;21224;-65
2022/10/15 10:11:05;;;;;;;0.73;0.73;;;18.10;99.90;;;19.18;nan;100100.47;4994858;28;20703;-66
2022/10/15 10:13:52;;;;;;;0.90;0.90;;;18.40;99.90;;;19.42;nan;100100.31;4999536;28;20641;-65
2022/10/15 10:16:21;;;;;;;1.10;1.00;;;18.60;99.90;;;19.42;nan;100095.03;4993431;28;20661;-66
2022/10/15 10:19:13;;;;;;;0.90;0.90;;;18.80;99.90;;;18.94;nan;100095.38;4993570;28;20665;-68
2022/10/15 10:21:42;;;;;;;0.90;0.90;;;18.70;99.90;;;18.90;nan;100104.66;4993111;28;21135;-66
2022/10/15 10:24:33;;;;;;;1.17;1.17;;;18.50;99.90;;;18.64;nan;100109.44;4993057;28;20640;-65
2022/10/15 10:27:01;;;;;;;0.80;0.80;;;18.30;99.90;;;18.28;nan;100104.66;5000640;28;20728;-67
2022/10/15 10:29:31;;;;;;;0.90;0.90;;;18.10;99.90;;;18.07;nan;100103.59;5014049;28;20649;-67
2022/10/15 10:32:18;;;;;;;0.90;0.90;;;17.90;99.90;;;17.96;nan;100109.25;5013402;28;20634;-66
2022/10/15 10:34:45;;;;;;;0.90;0.90;;;17.80;99.90;;;18.13;nan;100113.47;4997453;28;20628;-65
2022/10/15 10:37:18;;;;;;;1.00;1.00;;;17.80;99.90;;;18.22;nan;100110.63;4997856;28;21062;-65
2022/10/15 10:39:53;;;;;;;0.90;0.90;;;17.80;99.90;;;18.39;nan;100112.22;5014308;28;20676;-65
2022/10/15 10:42:31;;;;;;;0.80;0.80;;;17.90;99.90;;;18.35;nan;100105.63;4996916;28;20633;-69
2022/10/15 10:45:20;;;;;;;0.90;0.90;;;17.90;99.90;;;18.44;nan;100104.59;4983960;28;20630;-64
2022/10/15 10:47:51;;;;;;;3.33;0.70;;;17.90;99.90;;;18.73;nan;100096.03;5010697;28;20638;-68
2022/10/15 10:50:34;;;;;;;6.20;4.30;;;18.00;99.90;;;18.92;nan;100094.72;5013473;28;20668;-64
2022/10/15 10:53:24;;;;;;;5.40;3.80;;;18.30;99.90;;;18.87;nan;100097.09;5013646;28;20636;-64